sensor_id;sensor_type;location;lat;lon;timestamp;pressure;altitude;pressure_sealevel;temperature;humidity
10618;BME280;5356;43.526;26.534;2023-02-01T00:01:38;99071.63;;;2.84;100.00
10618;BME280;5356;43.526;26.534;2023-02-01T00:04:04;99079.34;;;2.86;100.00
10618;BME280;5356;43.526;26.534;2023-02-01T00:06:29;99074.38;;;2.91;100.00
10618;BME280;5356;43.526;26.534;2023-02-01T00:08:55;99080.78;;;2.88;100.00
10618;BME280;5356;43.526;26.534;2023-02-01T00:11:22;99072.28;;;2.86;100.00
10618;BME280;5356;43.526;26.534;2023-02-01T00:13:47;99065.19;;;2.87;100.00
10618;BME280;5356;43.526;26.534;2023-02-01T00:16:22;99070.94;;;2.90;100.00
10618;BME280;5356;43.526;26.534;2023-02-01T00:18:50;99072.78;;;2.82;100.00
10618;BME280;5356;43.526;26.534;2023-02-01T00:21:18;99067.72;;;2.80;100.00
10618;BME280;5356;43.526;26.534;2023-02-01T00:23:43;99059.16;;;2.78;100.00
10618;BME280;5356;43.526;26.534;2023-02-01T00:26:36;99060.28;;;2.84;100.00
10618;BME280;5356;43.526;26.534;2023-02-01T00:29:04;99060.28;;;2.84;100.00
10618;BME280;5356;43.526;26.534;2023-02-01T00:31:30;99065.41;;;2.77;100.00
10618;BME280;5356;43.526;26.534;2023-02-01T00:33:56;99065.59;;;2.76;100.00
10618;BME280;5356;43.526;26.534;2023-02-01T00:36:21;99070.19;;;2.74;100.00
10618;BME280;5356;43.526;26.534;2023-02-01T00:38:47;99071.22;;;2.64;100.00
10618;BME280;5356;43.526;26.534;2023-02-01T00:41:17;99068.41;;;2.66;100.00
10618;BME280;5356;43.526;26.534;2023-02-01T00:43:43;99071.53;;;2.69;100.00
10618;BME280;5356;43.526;26.534;2023-02-01T00:46:10;99069.38;;;2.73;100.00
10618;BME280;5356;43.526;26.534;2023-02-01T00:48:36;99073.94;;;2.79;100.00
10618;BME280;5356;43.526;26.534;2023-02-01T00:51:22;99075.59;;;2.80;100.00
10618;BME280;5356;43.526;26.534;2023-02-01T00:53:49;99067.06;;;2.78;100.00
10618;BME280;5356;43.526;26.534;2023-02-01T00:56:15;99072.44;;;2.85;100.00
10618;BME280;5356;43.526;26.534;2023-02-01T00:58:41;99077.88;;;2.83;100.00
10618;BME280;5356;43.526;26.534;2023-02-01T01:01:11;99067.06;;;2.78;100.00
10618;BME280;5356;43.526;26.534;2023-02-01T01:03:39;99070.72;;;2.69;100.00
10618;BME280;5356;43.526;26.534;2023-02-01T01:06:09;99069.03;;;2.76;100.00
10618;BME280;5356;43.526;26.534;2023-02-01T01:08:36;99059.28;;;2.85;100.00
10618;BME280;5356;43.526;26.534;2023-02-01T01:11:07;99061.63;;;2.80;100.00
10618;BME280;5356;43.526;26.534;2023-02-01T01:13:33;99052.91;;;2.79;100.00
10618;BME280;5356;43.526;26.534;2023-02-01T01:16:03;99060.34;;;2.76;100.00
10618;BME280;5356;43.526;26.534;2023-02-01T01:18:30;99066.06;;;2.79;100.00
10618;BME280;5356;43.526;26.534;2023-02-01T01:20:56;99061.09;;;2.84;100.00
10618;BME280;5356;43.526;26.534;2023-02-01T01:23:22;99057.78;;;2.90;100.00
10618;BME280;5356;43.526;26.534;2023-02-01T01:25:47;99057.13;;;2.88;100.00
10618;BME280;5356;43.526;26.534;2023-02-01T01:28:13;99051.25;;;2.86;100.00
10618;BME280;5356;43.526;26.534;2023-02-01T01:30:38;99043.00;;;2.89;100.00
10618;BME280;5356;43.526;26.534;2023-02-01T01:33:04;99033.28;;;2.90;100.00
10618;BME280;5356;43.526;26.534;2023-02-01T01:35:31;99044.63;;;2.90;100.00
10618;BME280;5356;43.526;26.534;2023-02-01T01:37:57;99037.91;;;2.88;100.00
10618;BME280;5356;43.526;26.534;2023-02-01T01:40:22;99042.69;;;2.84;100.00
10618;BME280;5356;43.526;26.534;2023-02-01T01:42:48;99041.69;;;2.85;100.00
10618;BME280;5356;43.526;26.534;2023-02-01T01:47:50;99038.44;;;2.83;100.00
10618;BME280;5356;43.526;26.534;2023-02-01T01:50:20;99057.31;;;2.87;100.00
10618;BME280;5356;43.526;26.534;2023-02-01T01:52:51;99061.25;;;2.83;100.00
10618;BME280;5356;43.526;26.534;2023-02-01T01:55:22;99055.50;;;2.87;100.00
10618;BME280;5356;43.526;26.534;2023-02-01T01:58:02;99069.00;;;2.84;100.00
10618;BME280;5356;43.526;26.534;2023-02-01T02:00:30;99063.13;;;2.74;100.00
10618;BME280;5356;43.526;26.534;2023-02-01T02:03:05;99070.72;;;2.69;100.00
10618;BME280;5356;43.526;26.534;2023-02-01T02:05:33;99067.22;;;2.77;100.00
10618;BME280;5356;43.526;26.534;2023-02-01T02:07:59;99070.00;;;2.83;100.00
10618;BME280;5356;43.526;26.534;2023-02-01T02:10:27;99064.03;;;2.89;100.00
10618;BME280;5356;43.526;26.534;2023-02-01T02:13:13;99059.94;;;2.87;100.00
10618;BME280;5356;43.526;26.534;2023-02-01T02:15:45;99063.53;;;2.86;100.00
10618;BME280;5356;43.526;26.534;2023-02-01T02:18:30;99060.75;;;2.87;100.00
10618;BME280;5356;43.526;26.534;2023-02-01T02:24:26;99060.41;;;2.90;100.00
10618;BME280;5356;43.526;26.534;2023-02-01T02:35:42;99072.69;;;2.67;100.00
10618;BME280;5356;43.526;26.534;2023-02-01T02:38:27;99072.34;;;2.70;100.00
10618;BME280;5356;43.526;26.534;2023-02-01T02:43:23;99061.91;;;2.54;100.00
10618;BME280;5356;43.526;26.534;2023-02-01T02:46:22;99067.28;;;2.60;100.00
10618;BME280;5356;43.526;26.534;2023-02-01T02:49:16;99071.56;;;2.61;100.00
10618;BME280;5356;43.526;26.534;2023-02-01T02:51:52;99066.31;;;2.61;100.00
10618;BME280;5356;43.526;26.534;2023-02-01T02:54:40;99064.47;;;2.70;100.00
10618;BME280;5356;43.526;26.534;2023-02-01T02:57:28;99064.59;;;2.77;100.00
10618;BME280;5356;43.526;26.534;2023-02-01T03:00:27;99064.81;;;2.67;100.00
10618;BME280;5356;43.526;26.534;2023-02-01T03:03:12;99067.59;;;2.65;100.00
10618;BME280;5356;43.526;26.534;2023-02-01T03:05:55;99070.41;;;2.64;100.00
10618;BME280;5356;43.526;26.534;2023-02-01T03:08:23;99066.47;;;2.60;100.00
10618;BME280;5356;43.526;26.534;2023-02-01T03:13:36;99070.06;;;2.67;100.00
10618;BME280;5356;43.526;26.534;2023-02-01T03:16:12;99066.44;;;2.68;100.00
10618;BME280;5356;43.526;26.534;2023-02-01T03:18:54;99068.41;;;2.66;100.00
10618;BME280;5356;43.526;26.534;2023-02-01T03:21:26;99067.59;;;2.65;100.00
10618;BME280;5356;43.526;26.534;2023-02-01T03:23:57;99071.03;;;2.66;100.00
10618;BME280;5356;43.526;26.534;2023-02-01T03:26:26;99073.88;;;2.64;100.00
10618;BME280;5356;43.526;26.534;2023-02-01T03:29:08;99065.00;;;2.57;100.00
10618;BME280;5356;43.526;26.534;2023-02-01T03:31:35;99071.72;;;2.60;100.00
10618;BME280;5356;43.526;26.534;2023-02-01T03:34:01;99081.28;;;2.61;100.00
10618;BME280;5356;43.526;26.534;2023-02-01T03:36:31;99073.09;;;2.56;100.00
10618;BME280;5356;43.526;26.534;2023-02-01T03:44:24;99070.38;;;2.72;100.00
10618;BME280;5356;43.526;26.534;2023-02-01T03:46:55;99080.63;;;2.59;100.00
10618;BME280;5356;43.526;26.534;2023-02-01T03:49:30;99076.38;;;2.58;100.00
10618;BME280;5356;43.526;26.534;2023-02-01T03:51:59;99075.75;;;2.47;100.00
10618;BME280;5356;43.526;26.534;2023-02-01T03:54:27;99082.50;;;2.42;100.00
10618;BME280;5356;43.526;26.534;2023-02-01T03:56:56;99087.28;;;2.38;100.00
10618;BME280;5356;43.526;26.534;2023-02-01T03:59:23;99082.97;;;2.45;100.00
10618;BME280;5356;43.526;26.534;2023-02-01T04:01:49;99083.13;;;2.52;100.00
10618;BME280;5356;43.526;26.534;2023-02-01T04:04:14;99073.75;;;2.58;100.00
10618;BME280;5356;43.526;26.534;2023-02-01T04:06:49;99085.38;;;2.63;100.00
10618;BME280;5356;43.526;26.534;2023-02-01T04:09:15;99087.50;;;2.60;100.00
10618;BME280;5356;43.526;26.534;2023-02-01T04:11:41;99090.31;;;2.58;100.00
10618;BME280;5356;43.526;26.534;2023-02-01T04:14:06;99098.13;;;2.35;100.00
10618;BME280;5356;43.526;26.534;2023-02-01T04:16:32;99107.50;;;2.38;100.00
10618;BME280;5356;43.526;26.534;2023-02-01T04:18:58;99105.97;;;2.43;100.00
10618;BME280;5356;43.526;26.534;2023-02-01T04:21:25;99104.69;;;2.39;100.00
10618;BME280;5356;43.526;26.534;2023-02-01T04:23:50;99111.78;;;2.31;100.00
10618;BME280;5356;43.526;26.534;2023-02-01T04:26:16;99113.59;;;2.30;100.00
10618;BME280;5356;43.526;26.534;2023-02-01T04:28:42;99117.69;;;2.24;100.00
10618;BME280;5356;43.526;26.534;2023-02-01T04:31:07;99116.03;;;2.23;100.00
10618;BME280;5356;43.526;26.534;2023-02-01T04:33:33;99109.00;;;2.32;100.00
10618;BME280;5356;43.526;26.534;2023-02-01T04:35:59;99118.13;;;2.44;100.00
10618;BME280;5356;43.526;26.534;2023-02-01T04:38:25;99120.94;;;2.43;100.00
10618;BME280;5356;43.526;26.534;2023-02-01T04:40:52;99116.81;;;2.48;100.00
10618;BME280;5356;43.526;26.534;2023-02-01T04:43:17;99115.00;;;2.49;100.00
10618;BME280;5356;43.526;26.534;2023-02-01T04:45:49;99114.19;;;2.48;100.00
10618;BME280;5356;43.526;26.534;2023-02-01T04:48:18;99121.44;;;2.46;100.00
10618;BME280;5356;43.526;26.534;2023-02-01T04:50:45;99125.03;;;2.45;100.00
10618;BME280;5356;43.526;26.534;2023-02-01T04:53:15;99120.13;;;2.42;100.00
10618;BME280;5356;43.526;26.534;2023-02-01T04:55:42;99128.66;;;2.44;100.00
10618;BME280;5356;43.526;26.534;2023-02-01T04:58:07;99131.75;;;2.48;100.00
10618;BME280;5356;43.526;26.534;2023-02-01T05:00:33;99126.00;;;2.53;100.00
10618;BME280;5356;43.526;26.534;2023-02-01T05:02:59;99129.59;;;2.52;100.00
10618;BME280;5356;43.526;26.534;2023-02-01T05:05:24;99133.34;;;2.65;100.00
10618;BME280;5356;43.526;26.534;2023-02-01T05:07:50;99129.41;;;2.69;100.00
10618;BME280;5356;43.526;26.534;2023-02-01T05:10:16;99123.00;;;2.64;100.00
10618;BME280;5356;43.526;26.534;2023-02-01T05:12:45;99121.66;;;2.68;100.00
10618;BME280;5356;43.526;26.534;2023-02-01T05:15:30;99121.50;;;2.69;100.00
10618;BME280;5356;43.526;26.534;2023-02-01T05:17:56;99114.75;;;2.75;100.00
10618;BME280;5356;43.526;26.534;2023-02-01T05:20:22;99120.97;;;2.74;100.00
10618;BME280;5356;43.526;26.534;2023-02-01T05:22:47;99119.38;;;2.65;100.00
10618;BME280;5356;43.526;26.534;2023-02-01T05:25:13;99112.16;;;2.67;100.00
10618;BME280;5356;43.526;26.534;2023-02-01T05:27:38;99113.09;;;2.74;100.00
10618;BME280;5356;43.526;26.534;2023-02-01T05:30:05;99099.59;;;2.77;100.00
10618;BME280;5356;43.526;26.534;2023-02-01T05:32:31;99107.19;;;2.72;100.00
10618;BME280;5356;43.526;26.534;2023-02-01T05:34:56;99106.88;;;2.67;100.00
10618;BME280;5356;43.526;26.534;2023-02-01T05:37:22;99105.50;;;2.79;100.00
10618;BME280;5356;43.526;26.534;2023-02-01T05:39:47;99104.22;;;2.75;100.00
10618;BME280;5356;43.526;26.534;2023-02-01T05:42:13;99109.28;;;2.85;100.00
10618;BME280;5356;43.526;26.534;2023-02-01T05:44:38;99106.47;;;2.86;100.00
10618;BME280;5356;43.526;26.534;2023-02-01T05:47:04;99099.22;;;2.88;100.00
10618;BME280;5356;43.526;26.534;2023-02-01T05:49:29;99102.34;;;2.92;100.00
10618;BME280;5356;43.526;26.534;2023-02-01T05:51:55;99110.28;;;2.84;100.00
10618;BME280;5356;43.526;26.534;2023-02-01T05:54:20;99117.69;;;2.80;100.00
10618;BME280;5356;43.526;26.534;2023-02-01T05:56:46;99120.44;;;2.87;100.00
10618;BME280;5356;43.526;26.534;2023-02-01T05:59:11;99122.09;;;2.80;100.00
10618;BME280;5356;43.526;26.534;2023-02-01T06:01:37;99124.13;;;2.78;100.00
10618;BME280;5356;43.526;26.534;2023-02-01T06:04:02;99131.81;;;2.79;100.00
10618;BME280;5356;43.526;26.534;2023-02-01T06:06:28;99122.59;;;2.83;100.00
10618;BME280;5356;43.526;26.534;2023-02-01T06:08:53;99128.81;;;2.90;100.00
10618;BME280;5356;43.526;26.534;2023-02-01T06:11:19;99143.09;;;2.96;100.00
10618;BME280;5356;43.526;26.534;2023-02-01T06:13:44;99139.47;;;2.97;100.00
10618;BME280;5356;43.526;26.534;2023-02-01T06:16:10;99143.94;;;2.88;100.00
10618;BME280;5356;43.526;26.534;2023-02-01T06:18:35;99138.75;;;2.80;100.00
10618;BME280;5356;43.526;26.534;2023-02-01T06:21:01;99138.75;;;2.72;100.00
10618;BME280;5356;43.526;26.534;2023-02-01T06:23:28;99145.66;;;2.73;100.00
10618;BME280;5356;43.526;26.534;2023-02-01T06:26:05;99139.06;;;2.77;100.00
10618;BME280;5356;43.526;26.534;2023-02-01T06:28:33;99139.03;;;2.85;100.00
10618;BME280;5356;43.526;26.534;2023-02-01T06:31:03;99138.88;;;2.87;100.00
10618;BME280;5356;43.526;26.534;2023-02-01T06:33:32;99138.56;;;2.74;100.00
10618;BME280;5356;43.526;26.534;2023-02-01T06:35:59;99142.03;;;2.74;100.00
10618;BME280;5356;43.526;26.534;2023-02-01T06:38:25;99151.22;;;2.78;100.00
10618;BME280;5356;43.526;26.534;2023-02-01T06:40:55;99143.69;;;2.75;100.00
10618;BME280;5356;43.526;26.534;2023-02-01T06:43:25;99140.19;;;2.83;100.00
10618;BME280;5356;43.526;26.534;2023-02-01T06:45:52;99149.25;;;2.80;100.00
10618;BME280;5356;43.526;26.534;2023-02-01T06:48:17;99140.72;;;2.78;100.00
10618;BME280;5356;43.526;26.534;2023-02-01T06:50:43;99138.56;;;2.82;100.00
10618;BME280;5356;43.526;26.534;2023-02-01T06:53:09;99145.63;;;2.81;100.00
10618;BME280;5356;43.526;26.534;2023-02-01T06:55:34;99151.63;;;2.98;100.00
10618;BME280;5356;43.526;26.534;2023-02-01T06:58:00;99147.53;;;2.96;100.00
10618;BME280;5356;43.526;26.534;2023-02-01T07:00:27;99143.00;;;3.12;100.00
10618;BME280;5356;43.526;26.534;2023-02-01T07:02:53;99143.06;;;3.04;100.00
10618;BME280;5356;43.526;26.534;2023-02-01T07:05:19;99143.53;;;3.08;100.00
10618;BME280;5356;43.526;26.534;2023-02-01T07:07:44;99146.50;;;3.05;100.00
10618;BME280;5356;43.526;26.534;2023-02-01T07:10:10;99132.03;;;3.09;100.00
10618;BME280;5356;43.526;26.534;2023-02-01T07:12:36;99139.91;;;3.09;100.00
10618;BME280;5356;43.526;26.534;2023-02-01T07:15:02;99148.75;;;3.16;100.00
10618;BME280;5356;43.526;26.534;2023-02-01T07:17:28;99148.75;;;3.16;100.00
10618;BME280;5356;43.526;26.534;2023-02-01T07:19:55;99146.88;;;3.25;100.00
10618;BME280;5356;43.526;26.534;2023-02-01T07:22:21;99151.34;;;3.24;100.00
10618;BME280;5356;43.526;26.534;2023-02-01T07:24:47;99163.94;;;3.37;100.00
10618;BME280;5356;43.526;26.534;2023-02-01T07:27:13;99156.47;;;3.49;100.00
10618;BME280;5356;43.526;26.534;2023-02-01T07:29:38;99156.47;;;3.49;100.00
10618;BME280;5356;43.526;26.534;2023-02-01T07:32:04;99162.97;;;3.61;100.00
10618;BME280;5356;43.526;26.534;2023-02-01T07:34:29;99175.66;;;3.57;100.00
10618;BME280;5356;43.526;26.534;2023-02-01T07:36:56;99181.59;;;3.59;100.00
10618;BME280;5356;43.526;26.534;2023-02-01T07:39:21;99169.50;;;3.65;100.00
10618;BME280;5356;43.526;26.534;2023-02-01T07:41:47;99171.63;;;3.70;100.00
10618;BME280;5356;43.526;26.534;2023-02-01T07:44:13;99167.00;;;3.72;100.00
10618;BME280;5356;43.526;26.534;2023-02-01T07:46:38;99167.00;;;3.72;100.00
10618;BME280;5356;43.526;26.534;2023-02-01T07:49:05;99163.41;;;3.88;100.00
10618;BME280;5356;43.526;26.534;2023-02-01T07:51:30;99177.13;;;3.83;100.00
10618;BME280;5356;43.526;26.534;2023-02-01T07:53:56;99167.28;;;4.00;100.00
10618;BME280;5356;43.526;26.534;2023-02-01T07:56:22;99171.91;;;3.98;100.00
10618;BME280;5356;43.526;26.534;2023-02-01T07:58:52;99170.06;;;3.98;100.00
10618;BME280;5356;43.526;26.534;2023-02-01T08:01:22;99176.88;;;3.93;100.00
10618;BME280;5356;43.526;26.534;2023-02-01T08:06:17;99157.78;;;4.14;100.00
10618;BME280;5356;43.526;26.534;2023-02-01T08:08:45;99159.00;;;4.03;100.00
10618;BME280;5356;43.526;26.534;2023-02-01T08:11:12;99162.00;;;4.00;100.00
10618;BME280;5356;43.526;26.534;2023-02-01T08:13:38;99156.94;;;4.13;100.00
10618;BME280;5356;43.526;26.534;2023-02-01T08:16:05;99150.47;;;4.16;100.00
10618;BME280;5356;43.526;26.534;2023-02-01T08:18:32;99160.88;;;4.17;100.00
10618;BME280;5356;43.526;26.534;2023-02-01T08:21:12;99157.78;;;4.28;100.00
10618;BME280;5356;43.526;26.534;2023-02-01T08:23:39;99163.34;;;4.34;100.00
10618;BME280;5356;43.526;26.534;2023-02-01T08:26:10;99155.91;;;4.37;100.00
10618;BME280;5356;43.526;26.534;2023-02-01T08:28:37;99163.97;;;4.36;100.00
10618;BME280;5356;43.526;26.534;2023-02-01T08:31:05;99168.63;;;4.34;100.00
10618;BME280;5356;43.526;26.534;2023-02-01T08:33:31;99167.91;;;4.40;100.00
10618;BME280;5356;43.526;26.534;2023-02-01T08:35:56;99161.53;;;4.49;100.00
10618;BME280;5356;43.526;26.534;2023-02-01T08:38:22;99170.19;;;4.58;100.00
10618;BME280;5356;43.526;26.534;2023-02-01T08:40:47;99168.75;;;4.70;100.00
10618;BME280;5356;43.526;26.534;2023-02-01T08:43:12;99169.66;;;4.77;100.00
10618;BME280;5356;43.526;26.534;2023-02-01T08:45:39;99161.94;;;4.76;100.00
10618;BME280;5356;43.526;26.534;2023-02-01T08:48:05;99166.00;;;4.78;100.00
10618;BME280;5356;43.526;26.534;2023-02-01T08:50:30;99165.28;;;4.84;100.00
10618;BME280;5356;43.526;26.534;2023-02-01T08:52:56;99166.38;;;4.90;100.00
10618;BME280;5356;43.526;26.534;2023-02-01T08:55:21;99172.28;;;4.92;100.00
10618;BME280;5356;43.526;26.534;2023-02-01T08:57:47;99172.38;;;4.99;100.00
10618;BME280;5356;43.526;26.534;2023-02-01T09:00:15;99165.91;;;5.01;100.00
10618;BME280;5356;43.526;26.534;2023-02-01T09:02:41;99160.06;;;5.06;100.00
10618;BME280;5356;43.526;26.534;2023-02-01T09:05:07;99163.13;;;5.09;100.00
10618;BME280;5356;43.526;26.534;2023-02-01T09:07:34;99166.59;;;5.25;100.00
10618;BME280;5356;43.526;26.534;2023-02-01T09:10:00;99170.25;;;5.24;100.00
10618;BME280;5356;43.526;26.534;2023-02-01T09:12:30;99157.03;;;5.24;100.00
10618;BME280;5356;43.526;26.534;2023-02-01T09:14:57;99152.09;;;5.35;100.00
10618;BME280;5356;43.526;26.534;2023-02-01T09:17:25;99168.00;;;5.42;100.00
10618;BME280;5356;43.526;26.534;2023-02-01T09:19:51;99167.34;;;5.55;100.00
10618;BME280;5356;43.526;26.534;2023-02-01T09:22:17;99162.09;;;5.61;100.00
10618;BME280;5356;43.526;26.534;2023-02-01T09:24:42;99157.56;;;5.77;100.00
10618;BME280;5356;43.526;26.534;2023-02-01T09:27:08;99150.44;;;5.77;100.00
10618;BME280;5356;43.526;26.534;2023-02-01T09:29:33;99144.34;;;5.77;100.00
10618;BME280;5356;43.526;26.534;2023-02-01T09:31:58;99150.31;;;5.85;100.00
10618;BME280;5356;43.526;26.534;2023-02-01T09:34:24;99138.53;;;6.03;100.00
10618;BME280;5356;43.526;26.534;2023-02-01T09:36:50;99140.16;;;6.04;100.00
10618;BME280;5356;43.526;26.534;2023-02-01T09:39:16;99130.63;;;6.10;100.00
10618;BME280;5356;43.526;26.534;2023-02-01T09:41:57;99131.28;;;6.12;100.00
10618;BME280;5356;43.526;26.534;2023-02-01T09:44:51;99134.88;;;6.04;100.00
10618;BME280;5356;43.526;26.534;2023-02-01T09:47:21;99127.34;;;6.07;100.00
10618;BME280;5356;43.526;26.534;2023-02-01T09:50:17;99118.19;;;6.03;100.00
10618;BME280;5356;43.526;26.534;2023-02-01T09:53:00;99121.28;;;6.14;100.00
10618;BME280;5356;43.526;26.534;2023-02-01T10:01:26;99116.50;;;6.24;100.00
10618;BME280;5356;43.526;26.534;2023-02-01T10:03:59;99119.13;;;6.24;100.00
10618;BME280;5356;43.526;26.534;2023-02-01T10:06:33;99117.13;;;6.26;100.00
10618;BME280;5356;43.526;26.534;2023-02-01T10:22:44;99109.22;;;6.04;100.00
10618;BME280;5356;43.526;26.534;2023-02-01T10:25:26;99107.63;;;6.03;100.00
10618;BME280;5356;43.526;26.534;2023-02-01T10:27:53;99111.63;;;5.99;100.00
10618;BME280;5356;43.526;26.534;2023-02-01T10:30:25;99104.56;;;5.85;100.00
10618;BME280;5356;43.526;26.534;2023-02-01T10:33:05;99104.56;;;5.85;100.00
10618;BME280;5356;43.526;26.534;2023-02-01T10:35:37;99102.31;;;5.82;100.00
10618;BME280;5356;43.526;26.534;2023-02-01T10:38:12;99092.94;;;5.79;100.00
10618;BME280;5356;43.526;26.534;2023-02-01T10:40:42;99093.53;;;5.75;100.00
10618;BME280;5356;43.526;26.534;2023-02-01T10:43:09;99083.50;;;5.92;100.00
10618;BME280;5356;43.526;26.534;2023-02-01T10:45:34;99077.13;;;6.07;100.00
10618;BME280;5356;43.526;26.534;2023-02-01T10:48:02;99065.75;;;6.14;100.00
10618;BME280;5356;43.526;26.534;2023-02-01T10:50:33;99070.28;;;6.20;100.00
10618;BME280;5356;43.526;26.534;2023-02-01T10:58:31;99061.19;;;6.29;100.00
10618;BME280;5356;43.526;26.534;2023-02-01T11:01:00;99057.78;;;6.42;100.00
10618;BME280;5356;43.526;26.534;2023-02-01T11:03:34;99060.91;;;6.59;100.00
10618;BME280;5356;43.526;26.534;2023-02-01T11:06:08;99052.25;;;6.85;100.00
10618;BME280;5356;43.526;26.534;2023-02-01T11:08:42;99055.53;;;6.87;100.00
10618;BME280;5356;43.526;26.534;2023-02-01T11:11:09;99049.25;;;6.94;100.00
10618;BME280;5356;43.526;26.534;2023-02-01T11:13:37;99047.81;;;6.85;100.00
10618;BME280;5356;43.526;26.534;2023-02-01T11:16:04;99037.00;;;6.93;100.00
10618;BME280;5356;43.526;26.534;2023-02-01T11:18:34;99032.16;;;7.04;100.00
10618;BME280;5356;43.526;26.534;2023-02-01T11:21:01;99020.97;;;7.08;100.00
10618;BME280;5356;43.526;26.534;2023-02-01T11:23:29;99013.03;;;7.15;100.00
10618;BME280;5356;43.526;26.534;2023-02-01T11:26:00;99019.34;;;7.20;100.00
10618;BME280;5356;43.526;26.534;2023-02-01T11:28:31;99018.13;;;7.23;100.00
10618;BME280;5356;43.526;26.534;2023-02-01T11:31:07;99012.25;;;7.28;100.00
10618;BME280;5356;43.526;26.534;2023-02-01T11:33:37;99012.84;;;7.36;100.00
10618;BME280;5356;43.526;26.534;2023-02-01T11:36:17;99016.50;;;7.22;100.00
10618;BME280;5356;43.526;26.534;2023-02-01T11:38:53;99005.06;;;7.15;100.00
10618;BME280;5356;43.526;26.534;2023-02-01T11:41:27;99004.88;;;7.10;100.00
10618;BME280;5356;43.526;26.534;2023-02-01T11:43:56;99003.47;;;7.20;100.00
10618;BME280;5356;43.526;26.534;2023-02-01T11:46:24;99001.41;;;7.16;100.00
10618;BME280;5356;43.526;26.534;2023-02-01T11:48:53;99005.47;;;7.12;100.00
10618;BME280;5356;43.526;26.534;2023-02-01T11:57:33;98984.28;;;6.98;100.00
10618;BME280;5356;43.526;26.534;2023-02-01T12:03:09;98992.25;;;7.05;100.00
10618;BME280;5356;43.526;26.534;2023-02-01T12:06:10;98981.03;;;6.96;100.00
10618;BME280;5356;43.526;26.534;2023-02-01T12:14:36;98976.72;;;6.95;100.00
10618;BME280;5356;43.526;26.534;2023-02-01T12:33:18;98991.03;;;7.28;100.00
10618;BME280;5356;43.526;26.534;2023-02-01T12:44:04;98982.66;;;7.04;100.00
10618;BME280;5356;43.526;26.534;2023-02-01T12:46:33;98971.47;;;7.02;100.00
10618;BME280;5356;43.526;26.534;2023-02-01T12:51:42;98963.53;;;7.02;100.00
10618;BME280;5356;43.526;26.534;2023-02-01T12:54:41;98963.50;;;7.09;100.00
10618;BME280;5356;43.526;26.534;2023-02-01T12:57:32;98962.28;;;7.11;100.00
10618;BME280;5356;43.526;26.534;2023-02-01T13:05:22;98954.16;;;7.19;100.00
10618;BME280;5356;43.526;26.534;2023-02-01T13:08:14;98956.16;;;7.24;100.00
10618;BME280;5356;43.526;26.534;2023-02-01T13:10:48;98949.25;;;7.23;100.00
10618;BME280;5356;43.526;26.534;2023-02-01T13:15:46;98955.78;;;7.54;100.00
10618;BME280;5356;43.526;26.534;2023-02-01T13:18:17;98949.03;;;7.51;100.00
10618;BME280;5356;43.526;26.534;2023-02-01T13:20:53;98951.91;;;7.56;100.00
10618;BME280;5356;43.526;26.534;2023-02-01T13:23:30;98955.78;;;7.54;100.00
10618;BME280;5356;43.526;26.534;2023-02-01T13:25:57;98950.06;;;7.57;100.00
10618;BME280;5356;43.526;26.534;2023-02-01T13:28:42;98949.63;;;7.60;100.00
10618;BME280;5356;43.526;26.534;2023-02-01T13:31:44;98944.13;;;7.68;100.00
10618;BME280;5356;43.526;26.534;2023-02-01T13:37:29;98952.22;;;8.00;100.00
10618;BME280;5356;43.526;26.534;2023-02-01T13:42:26;98949.38;;;7.88;100.00
10618;BME280;5356;43.526;26.534;2023-02-01T13:44:59;98940.66;;;7.74;100.00
10618;BME280;5356;43.526;26.534;2023-02-01T13:47:27;98942.69;;;7.65;100.00
10618;BME280;5356;43.526;26.534;2023-02-01T13:49:57;98950.84;;;7.64;100.00
10618;BME280;5356;43.526;26.534;2023-02-01T13:52:39;98941.06;;;7.58;100.00
10618;BME280;5356;43.526;26.534;2023-02-01T13:57:48;98927.03;;;7.51;100.00
10618;BME280;5356;43.526;26.534;2023-02-01T14:10:53;98927.03;;;7.37;100.00
10618;BME280;5356;43.526;26.534;2023-02-01T14:13:41;98916.03;;;7.40;100.00
10618;BME280;5356;43.526;26.534;2023-02-01T14:16:13;98916.84;;;7.48;100.00
10618;BME280;5356;43.526;26.534;2023-02-01T14:26:19;98913.72;;;7.64;100.00
10618;BME280;5356;43.526;26.534;2023-02-01T14:28:50;98916.59;;;7.69;100.00
10618;BME280;5356;43.526;26.534;2023-02-01T14:34:10;98911.13;;;7.51;100.00
10618;BME280;5356;43.526;26.534;2023-02-01T14:36:44;98926.81;;;7.46;100.00
10618;BME280;5356;43.526;26.534;2023-02-01T14:39:24;98908.88;;;7.41;100.00
10618;BME280;5356;43.526;26.534;2023-02-01T14:41:54;98910.09;;;7.38;100.00
10618;BME280;5356;43.526;26.534;2023-02-01T14:44:28;98919.69;;;7.39;100.00
10618;BME280;5356;43.526;26.534;2023-02-01T14:47:08;98926.63;;;7.34;100.00
10618;BME280;5356;43.526;26.534;2023-02-01T14:49:42;98928.66;;;7.32;100.00
10618;BME280;5356;43.526;26.534;2023-02-01T14:52:17;98921.75;;;7.17;100.00
10618;BME280;5356;43.526;26.534;2023-02-01T14:54:53;98931.53;;;7.17;100.00
10618;BME280;5356;43.526;26.534;2023-02-01T14:57:21;98931.31;;;7.12;100.00
10618;BME280;5356;43.526;26.534;2023-02-01T14:59:53;98932.31;;;7.04;100.00
10618;BME280;5356;43.526;26.534;2023-02-01T15:02:25;98929.28;;;7.01;100.00
10618;BME280;5356;43.526;26.534;2023-02-01T15:04:55;98938.84;;;6.95;100.00
10618;BME280;5356;43.526;26.534;2023-02-01T15:07:24;98942.50;;;6.81;100.00
10618;BME280;5356;43.526;26.534;2023-02-01T15:09:52;98938.41;;;6.78;100.00
10618;BME280;5356;43.526;26.534;2023-02-01T15:12:23;98942.69;;;6.66;100.00
10618;BME280;5356;43.526;26.534;2023-02-01T15:15:12;98944.28;;;6.60;100.00
10618;BME280;5356;43.526;26.534;2023-02-01T15:17:38;98944.47;;;6.59;100.00
10618;BME280;5356;43.526;26.534;2023-02-01T15:22:42;98954.84;;;6.53;100.00
10618;BME280;5356;43.526;26.534;2023-02-01T15:25:28;98954.84;;;6.53;100.00
10618;BME280;5356;43.526;26.534;2023-02-01T15:27:54;98950.78;;;6.58;100.00
10618;BME280;5356;43.526;26.534;2023-02-01T15:32:48;98958.31;;;6.54;100.00